Gladstone, Canada
Current Conditions -  °F | °C
As of 8:00 PM on Tuesday 21 Oct 2014 (Local Time) from CYPG Reporting Station
Few Clouds Few Clouds  
Wind Chill: 57°   Ceiling: Unl
Heat Index: 57°   Visibility: 15mi
Dew Point: 43°   Wind: 17mph
Humidity: 59%   Direction: 130°SE
Pressure: 29.77"   Gusts: 26mph
Location:  50.23°N, 98.95°W
Report Text: CYPG 220100Z 13015G23KT 15SM FEW140 14/06 A2977 RMK AC1 SLP089
Loading
Personal Weather Stations






























Interactive Weather Map New forecast layout! Learn more

10-Day Weather Forecast

Advertisements
Track Severe Weather on mobile